Home > Products > Valid Products > SSM

000
SMZS01 NSTU 242354
SSMPPG
AAXX 25004
91765 32569 41016 10308 20236 30041 40044 56020 83402 333 20271
56299 59014 555 92500=




000
SMZS01 NSTU 241801
SSMPPG
AAXX 24184
91765 32566 71015 10275 20230 30063 40066 52017 83171 333 56299 555
92418=




000
SMZS01 NSTU 241204
SSMPPG
AAXX 24124
91765 32566 51015 10272 20225 30054 40058 57007 83140 333 10310
5629/ 59006 555 92412=




000
SMZS01 NSTU 240557
SSMPPG
AAXX 24064
91765 32569 81012 10281 20231 30059 40063 51015 8587/ 333 56299
70000 555 92406=




000
SMZS01 NSTU 232353
SSMPPG
AAXX 24004
91765 32569 31012 10310 20236 30054 40058 56015 81188 333 20271
56299 59001 555 92400=




000
SMZS01 NSTU 231756
SSMPPG
AAXX 23184
91765 32567 71116 10277 20225 30064 40068 52014 85410 333 5629/
70114 555 92318=




000
SMZS01 NSTU 231202
SSMPPG
AAXX 23124
91765 32566 71015 10276 20236 30061 40064 57010 84418 333 10291
56299 58003 70244 555 92312=




000
SMZS01 NSTU 230555
SSMPPG
AAXX 23064
91765 32466 81214 10282 20241 30059 40063 52014 8682/ 333 56399
70267 555 92306=




000
SMZS01 NSTU 230056
SSMPPG
AAXX 23004
91765 11469 81214 10291 20249 30056 40059 56008 60604 70282 8347/
333 20249 56399 58007 70605 555 92300=




000
SMZS01 NSTU 221800
SSMPPG
AAXX 22184
91765 11464 81317 10269 20254 30056 40059 52012 60131 78082 8681/
333 56399 70572 555 92218=




000
SMZS01 NSTU 221203
SSMPPG
AAXX 22124
91765 11462 81413 10266 20249 30058 40061 57005 60021 78082 888//
333 10284 56399 58003 70521 555 92212=




000
SMZS01 NSTU 220601
SSMPPG
AAXX 22064
91765 11358 81213 10258 20247 30056 40059 52008 60341 78088 887//
333 56299 70780 555 92206=




    US Dept of Commerce
    National Oceanic and Atmospheric Administration
    National Weather Service
    1325 East West Highway
    Silver Spring, MD 20910
    Page Author: NWS Internet Services Team
Disclaimer
Information Quality
Credits
Glossary
Privacy Policy
Freedom of Information Act (FOIA)
About Us
Career Opportunities